createdAt,value
2023-12-11T00:00:24.631Z,18.77
2023-12-11T00:03:17.589Z,29.85
2023-12-11T00:05:52.400Z,21.85
2023-12-11T00:08:25.018Z,17.30
2023-12-11T00:10:57.034Z,18.40
2023-12-11T00:13:29.651Z,31.70
2023-12-11T00:16:01.864Z,24.95
2023-12-11T00:18:34.563Z,31.42
2023-12-11T00:21:10.832Z,21.15
2023-12-11T00:23:43.482Z,26.60
2023-12-11T00:26:15.662Z,28.73
2023-12-11T00:28:51.335Z,32.90
2023-12-11T00:31:23.679Z,32.88
2023-12-11T00:33:56.104Z,33.50
2023-12-11T00:36:31.407Z,32.38
2023-12-11T00:39:05.033Z,30.50
2023-12-11T00:41:37.462Z,28.13
2023-12-11T00:44:11.510Z,28.48
2023-12-11T00:46:43.592Z,26.70
2023-12-11T00:49:16.291Z,30.60
2023-12-11T00:51:54.410Z,32.28
2023-12-11T00:54:27.172Z,32.90
2023-12-11T00:56:59.458Z,26.10
2023-12-11T00:59:31.902Z,26.67
2023-12-11T01:02:04.217Z,20.05
2023-12-11T01:04:37.059Z,37.22
2023-12-11T01:07:12.290Z,26.25
2023-12-11T01:09:45.512Z,31.38
2023-12-11T01:12:17.532Z,27.40
2023-12-11T01:14:50.132Z,26.40
2023-12-11T01:17:37.754Z,25.60
2023-12-11T01:20:14.488Z,21.95
2023-12-11T01:22:49.234Z,35.17
2023-12-11T01:25:21.710Z,21.20
2023-12-11T01:27:53.840Z,24.25
2023-12-11T01:30:26.291Z,31.27
2023-12-11T01:32:58.477Z,27.45
2023-12-11T01:35:30.849Z,22.35
2023-12-11T01:38:05.473Z,23.63
2023-12-11T01:40:37.832Z,22.13
2023-12-11T01:43:18.661Z,20.80
2023-12-11T01:46:08.052Z,25.67
2023-12-11T01:48:40.934Z,24.48
2023-12-11T01:51:14.929Z,19.55
2023-12-11T01:53:52.092Z,23.55
2023-12-11T01:56:25.955Z,19.50
2023-12-11T01:59:00.123Z,24.42
2023-12-11T02:01:48.158Z,22.92
2023-12-11T02:04:20.695Z,18.13
2023-12-11T02:06:53.851Z,22.30
2023-12-11T02:09:29.235Z,22.48
2023-12-11T02:12:01.953Z,24.55
2023-12-11T02:14:34.192Z,22.50
2023-12-11T02:17:06.594Z,27.30
2023-12-11T02:19:39.129Z,31.38
2023-12-11T02:22:13.099Z,21.20
2023-12-11T02:24:53.582Z,21.05
2023-12-11T02:27:29.903Z,21.20
2023-12-11T02:30:02.056Z,26.55
2023-12-11T02:32:35.159Z,32.22
2023-12-11T02:35:08.355Z,24.05
2023-12-11T02:37:40.754Z,29.08
2023-12-11T02:40:13.799Z,24.65
2023-12-11T02:42:53.239Z,32.67
2023-12-11T02:45:24.972Z,24.33
2023-12-11T02:48:04.504Z,25.85
2023-12-11T02:50:36.895Z,27.20
2023-12-11T02:53:09.547Z,26.63
2023-12-11T02:55:41.210Z,21.05
2023-12-11T02:58:15.997Z,25.38
2023-12-11T03:00:47.972Z,23.55
2023-12-11T03:03:20.268Z,25.65
2023-12-11T03:05:54.620Z,23.95
2023-12-11T03:08:26.867Z,23.33
2023-12-11T03:10:58.893Z,18.95
2023-12-11T03:13:33.809Z,26.52
2023-12-11T03:16:05.660Z,24.35
2023-12-11T03:18:38.079Z,24.77
2023-12-11T03:21:10.669Z,18.65
2023-12-11T03:23:43.790Z,29.25
2023-12-11T03:26:15.593Z,21.17
2023-12-11T03:28:50.941Z,22.05
2023-12-11T03:31:22.670Z,21.98
2023-12-11T03:33:55.276Z,25.77
2023-12-11T03:36:27.081Z,22.55
2023-12-11T03:38:59.169Z,25.42
2023-12-11T03:41:30.965Z,22.52
2023-12-11T03:44:06.258Z,19.95
2023-12-11T03:46:38.133Z,18.85
2023-12-11T03:49:10.276Z,19.85
2023-12-11T03:51:42.103Z,20.58
2023-12-11T03:54:14.270Z,23.80
2023-12-11T03:56:46.374Z,20.65
2023-12-11T03:59:21.194Z,19.35
2023-12-11T04:01:53.498Z,17.23
2023-12-11T04:04:26.065Z,21.77
2023-12-11T04:06:58.461Z,18.27
2023-12-11T04:09:31.551Z,20.58
2023-12-11T04:12:03.492Z,14.13
2023-12-11T04:14:38.475Z,20.45
2023-12-11T04:17:10.215Z,24.60
2023-12-11T04:19:42.500Z,17.40
2023-12-11T04:22:14.403Z,23.98
2023-12-11T04:24:46.610Z,19.85
2023-12-11T04:27:18.491Z,17.38
2023-12-11T04:29:53.314Z,22.13
2023-12-11T04:32:25.297Z,16.98
2023-12-11T04:34:57.378Z,22.38
2023-12-11T04:37:29.667Z,21.15
2023-12-11T04:40:02.087Z,20.25
2023-12-11T04:42:34.015Z,14.95
2023-12-11T04:45:10.168Z,23.10
2023-12-11T04:47:42.195Z,21.05
2023-12-11T04:50:14.799Z,20.65
2023-12-11T04:52:46.774Z,20.17
2023-12-11T04:55:19.408Z,20.83
2023-12-11T04:57:51.700Z,22.67
2023-12-11T05:00:26.994Z,19.63
2023-12-11T05:02:59.214Z,24.85
2023-12-11T05:05:32.228Z,23.15
2023-12-11T05:08:04.393Z,30.25
2023-12-11T05:10:37.047Z,17.33
2023-12-11T05:13:09.339Z,20.80
2023-12-11T05:15:44.536Z,25.95
2023-12-11T05:18:16.775Z,27.65
2023-12-11T05:20:49.369Z,20.55
2023-12-11T05:23:21.525Z,19.90
2023-12-11T05:25:53.855Z,22.20
2023-12-11T05:28:25.931Z,19.77
2023-12-11T05:31:01.769Z,23.40
2023-12-11T05:33:34.276Z,24.73
2023-12-11T05:36:07.909Z,23.92
2023-12-11T05:38:40.048Z,33.03
2023-12-11T05:41:12.787Z,26.27
2023-12-11T05:43:44.890Z,21.75
2023-12-11T05:46:20.332Z,21.73
2023-12-11T05:48:53.005Z,36.00
2023-12-11T05:51:26.313Z,21.52
2023-12-11T05:53:58.711Z,24.20
2023-12-11T05:56:31.844Z,22.13
2023-12-11T05:59:03.899Z,24.48
2023-12-11T06:01:39.193Z,29.88
2023-12-11T06:04:11.201Z,25.85
2023-12-11T06:06:43.664Z,18.30
2023-12-11T06:09:16.360Z,27.15
2023-12-11T06:11:48.682Z,25.33
2023-12-11T06:14:20.728Z,24.80
2023-12-11T06:16:56.145Z,20.67
2023-12-11T06:19:28.291Z,22.25
2023-12-11T06:22:00.765Z,18.25
2023-12-11T06:24:32.874Z,18.90
2023-12-11T06:27:05.375Z,20.65
2023-12-11T06:29:37.535Z,18.58
2023-12-11T06:32:13.329Z,21.17
2023-12-11T06:34:45.925Z,29.10
2023-12-11T06:37:19.119Z,20.30
2023-12-11T06:39:52.570Z,21.92
2023-12-11T06:42:25.450Z,24.92
2023-12-11T06:44:57.900Z,24.58
2023-12-11T06:47:33.503Z,20.85
2023-12-11T06:50:06.187Z,23.63
2023-12-11T06:52:39.115Z,32.92
2023-12-11T06:55:12.165Z,29.08
2023-12-11T06:57:45.022Z,31.10
2023-12-11T07:00:18.141Z,19.65
2023-12-11T07:02:53.739Z,17.90
2023-12-11T07:05:26.490Z,17.60
2023-12-11T07:07:59.538Z,26.60
2023-12-11T07:10:31.852Z,28.50
2023-12-11T07:13:04.899Z,20.50
2023-12-11T07:15:37.881Z,16.33
2023-12-11T07:18:15.580Z,17.50
2023-12-11T07:20:48.173Z,27.60
2023-12-11T07:23:20.892Z,21.65
2023-12-11T07:25:53.415Z,16.10
2023-12-11T07:28:26.333Z,15.63
2023-12-11T07:31:00.545Z,18.83
2023-12-11T07:33:36.158Z,16.50
2023-12-11T07:36:09.851Z,16.90
2023-12-11T07:38:43.053Z,18.38
2023-12-11T07:41:16.172Z,17.23
2023-12-11T07:43:49.137Z,18.80
2023-12-11T07:46:19.252Z,19.80
2023-12-11T07:48:55.581Z,12.55
2023-12-11T07:51:29.731Z,14.75
2023-12-11T07:54:02.413Z,13.27
2023-12-11T07:56:37.169Z,13.73
2023-12-11T07:59:10.055Z,21.10
2023-12-11T08:01:42.835Z,16.48
2023-12-11T08:04:18.869Z,15.93
2023-12-11T08:06:51.951Z,16.55
2023-12-11T08:09:25.016Z,15.93
2023-12-11T08:11:57.536Z,14.00
2023-12-11T08:14:30.511Z,11.27
2023-12-11T08:17:03.234Z,17.25
2023-12-11T08:19:39.205Z,14.38
2023-12-11T08:22:11.820Z,10.65
2023-12-11T08:24:44.934Z,16.90
2023-12-11T08:27:17.724Z,18.30
2023-12-11T08:29:50.672Z,16.98
2023-12-11T08:32:23.170Z,15.38
2023-12-11T08:35:04.489Z,10.63
2023-12-11T08:37:37.084Z,17.80
2023-12-11T08:40:11.633Z,24.38
2023-12-11T08:42:44.511Z,15.52
2023-12-11T08:45:17.486Z,17.83
2023-12-11T08:47:50.629Z,18.05
2023-12-11T08:50:26.321Z,17.85
2023-12-11T08:52:58.721Z,12.27
2023-12-11T08:55:32.018Z,17.05
2023-12-11T08:58:05.431Z,19.02
2023-12-11T09:00:38.886Z,20.30
2023-12-11T09:03:11.247Z,18.75
2023-12-11T09:05:47.017Z,18.83
2023-12-11T09:08:19.602Z,19.90
2023-12-11T09:10:52.361Z,13.73
2023-12-11T09:13:28.479Z,23.70
2023-12-11T09:16:02.489Z,19.00
2023-12-11T09:18:35.502Z,21.27
2023-12-11T09:21:11.091Z,17.83
2023-12-11T09:23:43.685Z,23.83
2023-12-11T09:26:16.535Z,19.25
2023-12-11T09:28:52.156Z,19.83
2023-12-11T09:31:25.973Z,21.52
2023-12-11T09:33:56.073Z,17.80
2023-12-11T09:36:31.855Z,20.70
2023-12-11T09:39:06.131Z,25.83
2023-12-11T09:41:39.448Z,21.05
2023-12-11T09:44:13.666Z,20.58
2023-12-11T09:46:54.483Z,21.80
2023-12-11T09:49:29.440Z,20.23
2023-12-11T09:52:06.771Z,17.10
2023-12-11T09:54:39.371Z,23.70
2023-12-11T09:57:14.549Z,18.98
2023-12-11T09:59:47.844Z,19.73
2023-12-11T10:02:21.506Z,21.02
2023-12-11T10:05:08.479Z,26.42
2023-12-11T10:07:45.894Z,19.38
2023-12-11T10:10:27.454Z,21.83
2023-12-11T10:13:00.915Z,25.75
2023-12-11T10:15:34.804Z,20.13
2023-12-11T10:18:10.100Z,26.55
2023-12-11T10:20:44.351Z,17.60
2023-12-11T10:23:23.447Z,26.00
2023-12-11T10:25:57.684Z,21.60
2023-12-11T10:28:32.428Z,20.80
2023-12-11T10:31:06.962Z,16.90
2023-12-11T10:33:52.043Z,17.08
2023-12-11T10:36:24.762Z,14.15
2023-12-11T10:39:12.159Z,15.75
2023-12-11T10:41:46.564Z,13.10
2023-12-11T10:44:42.955Z,23.30
2023-12-11T10:47:20.315Z,19.15
2023-12-11T10:49:53.393Z,22.63
2023-12-11T10:52:25.404Z,17.00
2023-12-11T10:55:00.963Z,15.05
2023-12-11T10:57:35.934Z,15.30
2023-12-11T11:00:14.906Z,19.55
2023-12-11T11:02:49.695Z,23.73
2023-12-11T11:05:24.720Z,20.38
2023-12-11T11:08:06.272Z,20.42
2023-12-11T11:10:48.555Z,21.25
2023-12-11T11:13:25.114Z,18.08
2023-12-11T11:15:58.274Z,18.85
2023-12-11T11:18:30.672Z,20.77
2023-12-11T11:21:13.894Z,17.20
2023-12-11T11:23:49.743Z,24.00
2023-12-11T11:26:41.435Z,25.10
2023-12-11T11:29:33.540Z,18.40
2023-12-11T11:32:05.870Z,15.93
2023-12-11T11:34:47.986Z,25.30
2023-12-11T11:37:41.315Z,23.92
2023-12-11T11:40:15.232Z,21.55
2023-12-11T11:42:50.513Z,21.08
2023-12-11T11:45:22.839Z,19.35
2023-12-11T11:47:56.247Z,19.77
2023-12-11T11:50:28.514Z,20.30
2023-12-11T11:53:06.778Z,15.30
2023-12-11T11:55:41.952Z,17.75
2023-12-11T11:58:20.282Z,18.75
2023-12-11T12:00:53.073Z,18.92
2023-12-11T12:03:25.840Z,16.23
2023-12-11T12:05:59.306Z,16.52
2023-12-11T12:08:31.944Z,18.27
2023-12-11T12:11:04.231Z,14.65
2023-12-11T12:13:42.249Z,14.75
2023-12-11T12:16:14.573Z,17.35
2023-12-11T12:18:53.995Z,16.50
2023-12-11T12:21:26.466Z,17.98
2023-12-11T12:24:06.579Z,16.98
2023-12-11T12:26:40.546Z,13.93
2023-12-11T12:29:16.673Z,19.30
2023-12-11T12:31:49.691Z,14.13
2023-12-11T12:34:23.538Z,11.88
2023-12-11T12:36:58.428Z,10.13
2023-12-11T12:39:33.026Z,14.50
2023-12-11T12:42:33.826Z,13.13
2023-12-11T12:45:10.977Z,17.75
2023-12-11T12:47:54.218Z,18.70
2023-12-11T12:50:28.894Z,13.27
2023-12-11T12:53:12.612Z,19.55
2023-12-11T12:55:46.398Z,16.27
2023-12-11T12:58:18.982Z,17.33
2023-12-11T13:00:59.564Z,14.85
2023-12-11T13:03:32.768Z,17.33
2023-12-11T13:06:06.548Z,23.67
2023-12-11T13:08:59.227Z,17.45
2023-12-11T13:11:47.010Z,18.33
2023-12-11T13:14:20.585Z,14.50
2023-12-11T13:16:56.968Z,13.95
2023-12-11T13:19:29.450Z,18.90
2023-12-11T13:22:01.979Z,12.98
2023-12-11T13:24:33.983Z,22.55
2023-12-11T13:27:23.178Z,16.35
2023-12-11T13:30:11.595Z,17.63
2023-12-11T13:33:01.680Z,15.43
2023-12-11T13:35:36.551Z,13.30
2023-12-11T13:38:15.332Z,15.38
2023-12-11T13:40:54.666Z,14.40
2023-12-11T13:43:32.546Z,13.88
2023-12-11T13:46:12.664Z,15.10
2023-12-11T13:48:56.107Z,16.15
2023-12-11T13:51:34.106Z,17.77
2023-12-11T13:57:39.636Z,21.30
2023-12-11T14:00:17.588Z,16.45
2023-12-11T14:03:00.857Z,16.70
2023-12-11T14:05:39.974Z,13.32
2023-12-11T14:08:16.196Z,19.63
2023-12-11T14:10:48.978Z,16.30
2023-12-11T14:13:21.903Z,22.95
2023-12-11T14:15:56.855Z,19.65
2023-12-11T14:18:32.282Z,17.00
2023-12-11T14:21:07.875Z,16.73
2023-12-11T14:23:41.866Z,19.73
2023-12-11T14:26:17.748Z,21.17
2023-12-11T14:28:49.161Z,18.25
2023-12-11T14:31:24.036Z,16.40
2023-12-11T14:34:02.549Z,18.45
2023-12-11T14:36:37.727Z,16.00
2023-12-11T14:39:28.125Z,17.10
2023-12-11T14:42:01.128Z,14.02
2023-12-11T14:44:36.493Z,17.58
2023-12-11T14:47:12.042Z,16.60
2023-12-11T14:49:43.639Z,16.35
2023-12-11T14:52:18.963Z,15.32
2023-12-11T14:54:51.037Z,19.35
2023-12-11T14:57:23.096Z,15.80
2023-12-11T14:59:56.495Z,24.58
2023-12-11T15:02:33.751Z,17.33
2023-12-11T15:05:21.685Z,21.55
2023-12-11T15:08:17.255Z,13.43
2023-12-11T15:10:59.382Z,10.30
2023-12-11T15:13:35.616Z,19.38
2023-12-11T15:16:11.026Z,16.10
2023-12-11T15:18:46.477Z,13.13
2023-12-11T15:21:20.298Z,19.83
2023-12-11T15:23:58.390Z,18.70
2023-12-11T15:26:30.643Z,15.30
2023-12-11T15:29:34.058Z,16.98
2023-12-11T15:32:06.868Z,15.45
2023-12-11T15:34:43.306Z,15.30
2023-12-11T15:37:17.572Z,15.85
2023-12-11T15:39:56.694Z,15.30
2023-12-11T15:42:28.407Z,18.10
2023-12-11T15:45:01.457Z,18.67
2023-12-11T15:47:58.565Z,21.63
2023-12-11T15:50:25.691Z,18.23
2023-12-11T15:52:58.265Z,16.33
2023-12-11T15:55:34.308Z,18.10
2023-12-11T15:58:08.166Z,26.42
2023-12-11T16:00:42.879Z,19.70
2023-12-11T16:03:14.829Z,17.65
2023-12-11T16:05:49.951Z,16.45
2023-12-11T16:08:22.203Z,16.48
2023-12-11T16:10:57.365Z,16.05
2023-12-11T16:13:30.280Z,18.08
2023-12-11T16:16:04.231Z,19.55
2023-12-11T16:18:36.809Z,17.65
2023-12-11T16:21:10.086Z,18.80
2023-12-11T16:23:42.908Z,15.18
2023-12-11T16:26:20.118Z,16.60
2023-12-11T16:28:54.550Z,16.58
2023-12-11T16:31:26.965Z,18.45
2023-12-11T16:34:02.235Z,16.70
2023-12-11T16:36:34.431Z,16.92
2023-12-11T16:39:06.804Z,18.25
2023-12-11T16:41:42.361Z,20.65
2023-12-11T16:44:17.074Z,22.42
2023-12-11T16:46:49.926Z,19.83
2023-12-11T16:49:21.471Z,23.13
2023-12-11T16:51:54.991Z,20.40
2023-12-11T16:54:29.510Z,24.23
2023-12-11T16:57:10.851Z,21.48
2023-12-11T16:59:44.519Z,16.55
2023-12-11T17:02:16.977Z,24.52
2023-12-11T17:04:55.052Z,21.08
2023-12-11T17:07:29.225Z,20.42
2023-12-11T17:10:01.320Z,22.65
2023-12-11T17:12:44.661Z,21.25
2023-12-11T17:15:18.679Z,19.48
2023-12-11T17:17:51.741Z,18.00
2023-12-11T17:20:27.436Z,21.63
2023-12-11T17:23:15.541Z,16.77
2023-12-11T17:26:06.540Z,17.98
2023-12-11T17:28:42.468Z,19.83
2023-12-11T17:31:16.137Z,15.85
2023-12-11T17:33:48.812Z,16.60
2023-12-11T17:36:22.063Z,21.35
2023-12-11T17:38:57.661Z,20.90
2023-12-11T17:41:30.775Z,20.23
2023-12-11T17:44:06.431Z,21.95
2023-12-11T17:46:39.220Z,19.08
2023-12-11T17:49:11.563Z,23.20
2023-12-11T17:51:43.824Z,20.88
2023-12-11T17:54:16.482Z,21.50
2023-12-11T17:56:48.724Z,18.77
2023-12-11T17:59:25.585Z,17.55
2023-12-11T18:02:00.964Z,14.95
2023-12-11T18:04:34.017Z,17.58
2023-12-11T18:07:06.689Z,12.98
2023-12-11T18:09:40.065Z,16.20
2023-12-11T18:12:13.293Z,19.20
2023-12-11T18:14:49.278Z,14.80
2023-12-11T18:17:22.222Z,10.80
2023-12-11T18:19:54.309Z,10.77
2023-12-11T18:26:29.445Z,6.32
2023-12-11T18:31:20.239Z,5.72
2023-12-11T18:33:56.475Z,4.20
2023-12-11T18:36:29.122Z,4.22
2023-12-11T18:39:02.009Z,5.70
2023-12-11T18:41:34.601Z,5.10
2023-12-11T18:44:10.337Z,6.40
2023-12-11T18:46:45.482Z,6.95
2023-12-11T18:49:18.218Z,5.03
2023-12-11T18:51:50.635Z,11.15
2023-12-11T18:54:23.460Z,8.63
2023-12-11T18:56:55.519Z,4.75
2023-12-11T18:59:27.857Z,5.40
2023-12-11T19:02:02.913Z,7.72
2023-12-11T19:04:35.501Z,6.20
2023-12-11T19:07:08.979Z,7.55
2023-12-11T19:09:44.695Z,6.43
2023-12-11T19:12:19.739Z,8.02
2023-12-11T19:14:52.306Z,6.72
2023-12-11T19:17:26.711Z,9.75
2023-12-11T19:19:59.479Z,6.90
2023-12-11T19:22:36.864Z,7.60
2023-12-11T19:25:14.229Z,8.20
2023-12-11T19:27:50.775Z,7.72
2023-12-11T19:30:24.947Z,6.38
2023-12-11T19:33:06.328Z,4.93
2023-12-11T19:35:38.929Z,4.88
2023-12-11T19:38:10.479Z,5.18
2023-12-11T19:40:43.476Z,6.20
2023-12-11T19:43:16.774Z,4.00
2023-12-11T19:45:52.311Z,4.28
2023-12-11T19:48:26.985Z,3.65
2023-12-11T19:51:00.522Z,4.40
2023-12-11T19:53:32.127Z,5.22
2023-12-11T19:56:04.246Z,3.80
2023-12-11T19:58:35.899Z,5.20
2023-12-11T20:01:08.054Z,3.80
2023-12-11T20:03:47.517Z,3.80
2023-12-11T20:06:28.007Z,4.53
2023-12-11T20:09:00.442Z,4.82
2023-12-11T20:11:33.689Z,2.63
2023-12-11T20:14:05.815Z,3.22
2023-12-11T20:16:38.269Z,4.60
2023-12-11T20:19:12.946Z,4.68
2023-12-11T20:21:45.935Z,4.90
2023-12-11T20:24:20.810Z,8.18
2023-12-11T20:26:56.738Z,9.32
2023-12-11T20:29:28.492Z,7.05
2023-12-11T20:32:00.841Z,6.40
2023-12-11T20:34:35.750Z,8.45
2023-12-11T20:37:08.329Z,8.15
2023-12-11T20:39:40.386Z,7.88
2023-12-11T20:42:12.702Z,11.55
2023-12-11T20:44:44.173Z,15.38
2023-12-11T20:47:16.497Z,7.78
2023-12-11T20:49:51.605Z,6.90
2023-12-11T20:52:24.946Z,12.13
2023-12-11T20:54:58.577Z,10.60
2023-12-11T20:57:33.751Z,11.43
2023-12-11T21:00:10.767Z,9.90
2023-12-11T21:02:44.521Z,10.60
2023-12-11T21:05:19.706Z,8.02
2023-12-11T21:07:53.861Z,11.23
2023-12-11T21:10:25.827Z,8.63
2023-12-11T21:12:59.405Z,6.68
2023-12-11T21:15:31.503Z,7.00
2023-12-11T21:18:04.342Z,7.05
2023-12-11T21:20:40.789Z,7.28
2023-12-11T21:23:13.908Z,5.70
2023-12-11T21:25:46.306Z,6.07
2023-12-11T21:28:18.838Z,5.15
2023-12-11T21:30:52.870Z,5.90
2023-12-11T21:33:25.518Z,4.97
2023-12-11T21:36:00.280Z,5.38
2023-12-11T21:38:36.952Z,7.60
2023-12-11T21:41:15.032Z,5.30
2023-12-11T21:43:49.958Z,8.88
2023-12-11T21:46:24.036Z,6.53
2023-12-11T21:48:59.724Z,5.45
2023-12-11T21:51:37.290Z,7.57
2023-12-11T21:54:10.463Z,4.93
2023-12-11T21:56:42.521Z,7.43
2023-12-11T21:59:17.054Z,6.70
2023-12-11T22:01:48.866Z,7.70
2023-12-11T22:04:22.477Z,5.85
2023-12-11T22:06:57.081Z,5.95
2023-12-11T22:09:29.213Z,9.20
2023-12-11T22:12:01.026Z,3.10
